createdAt,value
2023-04-27T00:00:51.940Z,5.50
2023-04-27T00:03:20.628Z,5.50
2023-04-27T00:05:49.462Z,5.60
2023-04-27T00:08:18.022Z,5.60
2023-04-27T00:10:46.458Z,5.70
2023-04-27T00:13:16.249Z,5.70
2023-04-27T00:15:45.783Z,5.70
2023-04-27T00:18:14.567Z,5.70
2023-04-27T00:20:43.001Z,5.80
2023-04-27T00:23:11.828Z,5.70
2023-04-27T00:25:40.506Z,5.60
2023-04-27T00:28:08.915Z,5.60
2023-04-27T00:30:38.756Z,5.50
2023-04-27T00:33:07.388Z,5.50
2023-04-27T00:35:35.858Z,5.50
2023-04-27T00:38:04.261Z,5.40
2023-04-27T00:40:32.880Z,5.40
2023-04-27T00:43:01.294Z,5.40
2023-04-27T00:45:30.030Z,5.40
2023-04-27T00:48:00.730Z,5.50
2023-04-27T00:50:30.627Z,5.50
2023-04-27T00:52:59.156Z,5.50
2023-04-27T00:55:27.944Z,5.50
2023-04-27T00:57:56.535Z,5.50
2023-04-27T01:00:25.976Z,5.40
2023-04-27T01:02:55.055Z,5.40
2023-04-27T01:05:26.359Z,5.40
2023-04-27T01:07:54.811Z,5.30
2023-04-27T01:10:23.384Z,5.30
2023-04-27T01:12:52.882Z,5.10
2023-04-27T01:15:21.492Z,5.10
2023-04-27T01:17:50.001Z,5.00
2023-04-27T01:20:19.970Z,4.90
2023-04-27T01:22:50.898Z,5.00
2023-04-27T01:25:21.247Z,5.10
2023-04-27T01:27:49.700Z,5.00
2023-04-27T01:30:18.468Z,4.90
2023-04-27T01:32:47.066Z,4.90
2023-04-27T01:35:15.614Z,4.90
2023-04-27T01:37:44.150Z,4.90
2023-04-27T01:40:14.512Z,4.90
2023-04-27T01:42:44.405Z,4.90
2023-04-27T01:45:13.629Z,4.90
2023-04-27T01:47:42.142Z,4.90
2023-04-27T01:50:11.611Z,4.90
2023-04-27T01:52:40.098Z,4.90
2023-04-27T01:55:10.035Z,5.00
2023-04-27T01:57:38.741Z,5.00
2023-04-27T02:00:11.075Z,5.00
2023-04-27T02:02:40.055Z,5.10
2023-04-27T02:05:10.097Z,5.10
2023-04-27T02:07:38.624Z,5.10
2023-04-27T02:10:08.737Z,5.10
2023-04-27T02:12:37.205Z,5.20
2023-04-27T02:15:09.183Z,5.20
2023-04-27T02:17:38.639Z,5.20
2023-04-27T02:20:09.058Z,5.30
2023-04-27T02:22:37.700Z,5.30
2023-04-27T02:25:07.294Z,5.30
2023-04-27T02:27:38.454Z,5.20
2023-04-27T02:30:11.789Z,5.30
2023-04-27T02:32:41.375Z,5.30
2023-04-27T02:35:11.111Z,5.30
2023-04-27T02:37:39.931Z,5.40
2023-04-27T02:40:10.393Z,5.40
2023-04-27T02:42:39.372Z,5.40
2023-04-27T02:45:10.773Z,5.40
2023-04-27T02:47:39.245Z,5.40
2023-04-27T02:50:09.267Z,5.40
2023-04-27T02:52:37.804Z,5.40
2023-04-27T02:55:07.243Z,5.40
2023-04-27T02:57:35.767Z,5.40
2023-04-27T03:00:06.373Z,5.40
2023-04-27T03:02:36.552Z,5.40
2023-04-27T03:05:06.058Z,5.30
2023-04-27T03:07:34.546Z,5.30
2023-04-27T03:10:03.085Z,5.30
2023-04-27T03:12:31.774Z,5.30
2023-04-27T03:15:01.184Z,5.30
2023-04-27T03:17:29.970Z,5.30
2023-04-27T03:20:00.119Z,5.40
2023-04-27T03:22:28.674Z,5.40
2023-04-27T03:24:57.145Z,5.30
2023-04-27T03:27:25.766Z,5.30
2023-04-27T03:29:54.692Z,5.30
2023-04-27T03:32:23.514Z,5.30
2023-04-27T03:34:52.390Z,5.40
2023-04-27T03:37:22.212Z,5.40
2023-04-27T03:39:51.132Z,5.30
2023-04-27T03:42:19.627Z,5.30
2023-04-27T03:44:48.370Z,5.30
2023-04-27T03:47:16.842Z,5.30
2023-04-27T03:49:45.624Z,5.40
2023-04-27T03:52:14.179Z,5.40
2023-04-27T03:54:44.109Z,5.40
2023-04-27T03:57:12.606Z,5.40
2023-04-27T04:02:30.795Z,5.50
2023-04-27T04:04:59.447Z,5.50
2023-04-27T04:07:28.004Z,5.50
2023-04-27T04:09:57.849Z,5.50
2023-04-27T04:12:26.299Z,5.50
2023-04-27T04:14:54.915Z,5.60
2023-04-27T04:17:23.525Z,5.60
2023-04-27T04:19:52.058Z,5.60
2023-04-27T04:22:20.552Z,5.70
2023-04-27T04:24:49.132Z,5.70
2023-04-27T04:27:19.392Z,5.70
2023-04-27T04:29:48.489Z,5.70
2023-04-27T04:32:18.642Z,5.70
2023-04-27T04:34:51.269Z,5.70
2023-04-27T04:37:19.950Z,5.70
2023-04-27T04:39:48.578Z,5.70
2023-04-27T04:42:18.537Z,5.80
2023-04-27T04:44:47.218Z,5.80
2023-04-27T04:47:15.772Z,5.80
2023-04-27T04:49:44.260Z,5.80
2023-04-27T04:52:12.720Z,5.80
2023-04-27T04:54:41.391Z,5.80
2023-04-27T04:57:10.678Z,5.80
2023-04-27T04:59:41.263Z,5.80
2023-04-27T05:02:09.745Z,5.80
2023-04-27T05:04:38.369Z,5.90
2023-04-27T05:07:07.402Z,5.90
2023-04-27T05:09:35.856Z,5.90
2023-04-27T05:12:04.743Z,5.90
2023-04-27T05:14:33.289Z,6.00
2023-04-27T05:17:03.340Z,6.00
2023-04-27T05:19:32.348Z,6.10
2023-04-27T05:22:01.347Z,6.20
2023-04-27T05:24:30.064Z,6.20
2023-04-27T05:26:59.724Z,6.20
2023-04-27T05:29:30.186Z,6.20
2023-04-27T05:31:58.819Z,6.20
2023-04-27T05:34:28.687Z,6.30
2023-04-27T05:36:57.212Z,6.20
2023-04-27T05:39:26.518Z,6.20
2023-04-27T05:41:55.100Z,6.20
2023-04-27T05:44:25.487Z,6.20
2023-04-27T05:46:53.967Z,6.20
2023-04-27T05:49:23.050Z,6.20
2023-04-27T05:51:53.705Z,6.20
2023-04-27T05:54:22.229Z,6.30
2023-04-27T05:56:52.745Z,6.50
2023-04-27T05:59:21.946Z,6.60
2023-04-27T06:01:51.011Z,6.60
2023-04-27T06:04:19.691Z,6.60
2023-04-27T06:06:48.326Z,6.70
2023-04-27T06:09:18.229Z,6.70
2023-04-27T06:11:48.045Z,6.70
2023-04-27T06:14:17.110Z,6.70
2023-04-27T06:16:45.622Z,6.80
2023-04-27T06:19:14.335Z,6.70
2023-04-27T06:21:44.150Z,6.70
2023-04-27T06:24:12.599Z,6.70
2023-04-27T06:26:42.460Z,6.50
2023-04-27T06:29:11.881Z,6.50
2023-04-27T06:31:40.718Z,6.60
2023-04-27T06:34:09.276Z,6.60
2023-04-27T06:36:38.093Z,6.60
2023-04-27T06:39:06.581Z,6.80
2023-04-27T06:41:35.114Z,6.90
2023-04-27T06:44:05.038Z,7.00
2023-04-27T06:46:33.593Z,7.00
2023-04-27T06:49:02.869Z,7.10
2023-04-27T06:51:32.017Z,7.10
2023-04-27T06:54:00.518Z,7.20
2023-04-27T06:56:29.614Z,7.40
2023-04-27T06:58:58.184Z,7.50
2023-04-27T07:01:28.113Z,7.60
2023-04-27T07:03:57.499Z,7.60
2023-04-27T07:06:28.878Z,7.60
2023-04-27T07:08:57.696Z,7.80
2023-04-27T07:11:26.334Z,8.10
2023-04-27T07:13:55.241Z,8.40
2023-04-27T07:16:23.814Z,8.50
2023-04-27T07:18:53.720Z,8.70
2023-04-27T07:21:22.208Z,8.90
2023-04-27T07:23:50.823Z,9.40
2023-04-27T07:26:20.535Z,9.90
2023-04-27T07:28:49.009Z,10.60
2023-04-27T07:31:19.089Z,10.90
2023-04-27T07:33:47.879Z,11.40
2023-04-27T07:36:17.858Z,12.20
2023-04-27T07:38:46.316Z,13.00
2023-04-27T07:41:15.777Z,13.10
2023-04-27T07:43:44.278Z,12.90
2023-04-27T07:46:13.073Z,12.60
2023-04-27T07:48:42.293Z,12.40
2023-04-27T07:51:10.763Z,12.40
2023-04-27T07:53:40.856Z,12.30
2023-04-27T07:56:10.208Z,12.40
2023-04-27T07:58:39.886Z,12.40
2023-04-27T08:01:09.518Z,12.30
2023-04-27T08:03:38.269Z,12.10
2023-04-27T08:06:07.544Z,11.90
2023-04-27T08:08:36.417Z,11.80
2023-04-27T08:11:06.487Z,11.80
2023-04-27T08:13:36.524Z,11.80
2023-04-27T08:16:05.773Z,11.80
2023-04-27T08:18:34.660Z,11.70
2023-04-27T08:21:04.175Z,11.80
2023-04-27T08:23:33.344Z,11.60
2023-04-27T08:26:01.851Z,11.40
2023-04-27T08:28:31.759Z,11.40
2023-04-27T08:31:00.421Z,11.30
2023-04-27T08:33:28.941Z,11.40
2023-04-27T08:35:57.640Z,11.50
2023-04-27T08:38:26.196Z,11.60
2023-04-27T08:40:54.710Z,11.60
2023-04-27T08:43:23.248Z,11.70
2023-04-27T08:45:53.449Z,11.70
2023-04-27T08:48:22.257Z,11.90
2023-04-27T08:50:52.814Z,12.10
2023-04-27T08:53:23.171Z,12.40
2023-04-27T08:55:53.962Z,12.70
2023-04-27T08:58:22.506Z,13.00
2023-04-27T09:00:52.785Z,13.10
2023-04-27T09:03:25.132Z,13.00
2023-04-27T09:06:04.539Z,12.60
2023-04-27T09:08:46.583Z,12.30
2023-04-27T09:11:15.572Z,12.10
2023-04-27T09:13:45.665Z,12.30
2023-04-27T09:16:15.709Z,12.40
2023-04-27T09:18:45.440Z,12.40
2023-04-27T09:21:24.235Z,12.40
2023-04-27T09:23:53.394Z,12.50
2023-04-27T09:26:23.590Z,12.50
2023-04-27T09:28:54.660Z,12.80
2023-04-27T09:31:32.517Z,12.90
2023-04-27T09:34:01.499Z,12.90
2023-04-27T09:36:32.546Z,13.10
2023-04-27T09:39:06.335Z,13.10
2023-04-27T09:41:35.407Z,12.90
2023-04-27T09:44:05.181Z,12.50
2023-04-27T09:46:36.929Z,12.30
2023-04-27T09:49:06.764Z,12.20
2023-04-27T09:51:36.119Z,12.20
2023-04-27T09:54:06.341Z,12.30
2023-04-27T09:56:50.746Z,12.40
2023-04-27T09:59:48.308Z,12.50
2023-04-27T10:02:25.311Z,12.70
2023-04-27T10:05:29.530Z,12.80
2023-04-27T10:07:58.153Z,12.90
2023-04-27T10:10:26.697Z,12.90
2023-04-27T10:12:59.652Z,12.80
2023-04-27T10:15:29.918Z,13.20
2023-04-27T10:18:07.074Z,14.00
2023-04-27T10:20:38.960Z,14.20
2023-04-27T10:23:08.151Z,14.70
2023-04-27T10:25:41.497Z,14.80
2023-04-27T10:28:17.229Z,14.40
2023-04-27T10:30:49.052Z,13.80
2023-04-27T10:33:21.711Z,13.40
2023-04-27T10:35:58.157Z,13.00
2023-04-27T10:38:31.731Z,12.80
2023-04-27T10:41:02.682Z,12.70
2023-04-27T10:43:33.479Z,12.70
2023-04-27T10:46:13.499Z,12.80
2023-04-27T10:48:44.036Z,13.10
2023-04-27T10:51:16.666Z,13.20
2023-04-27T10:53:45.503Z,13.40
2023-04-27T10:56:14.247Z,13.50
2023-04-27T10:58:48.817Z,13.50
2023-04-27T11:01:26.114Z,13.40
2023-04-27T11:03:58.980Z,13.30
2023-04-27T11:06:28.312Z,13.10
2023-04-27T11:08:57.200Z,13.00
2023-04-27T11:11:26.636Z,12.80
2023-04-27T11:13:56.005Z,12.50
2023-04-27T11:16:25.468Z,12.40
2023-04-27T11:18:55.241Z,12.40
2023-04-27T11:21:25.178Z,11.70
2023-04-27T11:23:53.712Z,12.70
2023-04-27T11:26:26.641Z,13.00
2023-04-27T11:29:01.756Z,13.10
2023-04-27T11:31:41.955Z,13.20
2023-04-27T11:34:11.359Z,13.00
2023-04-27T11:36:41.287Z,13.00
2023-04-27T11:39:11.717Z,12.90
2023-04-27T11:41:45.850Z,13.10
2023-04-27T11:44:14.970Z,13.70
2023-04-27T11:46:47.735Z,14.30
2023-04-27T11:49:16.607Z,14.50
2023-04-27T11:51:48.817Z,14.40
2023-04-27T11:54:17.753Z,14.20
2023-04-27T11:56:46.518Z,13.90
2023-04-27T11:59:23.341Z,13.80
2023-04-27T12:01:53.213Z,13.60
2023-04-27T12:04:22.207Z,13.50
2023-04-27T12:06:52.330Z,13.40
2023-04-27T12:09:20.788Z,13.40
2023-04-27T12:11:49.304Z,13.30
2023-04-27T12:14:19.933Z,13.30
2023-04-27T12:16:48.686Z,13.40
2023-04-27T12:19:17.592Z,14.00
2023-04-27T12:21:46.748Z,14.40
2023-04-27T12:24:16.817Z,14.80
2023-04-27T12:26:45.862Z,15.40
2023-04-27T12:29:14.376Z,15.80
2023-04-27T12:31:42.953Z,15.80
2023-04-27T12:34:12.238Z,15.80
2023-04-27T12:36:41.382Z,15.70
2023-04-27T12:39:20.092Z,15.10
2023-04-27T12:41:49.702Z,14.60
2023-04-27T12:44:19.808Z,14.10
2023-04-27T12:46:49.253Z,14.00
2023-04-27T12:49:18.397Z,14.00
2023-04-27T12:51:47.973Z,14.10
2023-04-27T12:54:17.873Z,14.10
2023-04-27T12:56:47.177Z,13.10
2023-04-27T12:59:16.846Z,14.10
2023-04-27T13:01:46.048Z,14.20
2023-04-27T13:04:22.703Z,14.40
2023-04-27T13:06:51.874Z,14.50
2023-04-27T13:09:22.300Z,14.30
2023-04-27T13:11:53.169Z,14.00
2023-04-27T13:14:21.812Z,13.70
2023-04-27T13:16:50.310Z,13.60
2023-04-27T13:19:18.770Z,13.70
2023-04-27T13:21:47.249Z,13.70
2023-04-27T13:24:17.594Z,13.70
2023-04-27T13:26:47.635Z,13.80
2023-04-27T13:29:16.318Z,13.90
2023-04-27T13:31:44.856Z,14.00
2023-04-27T13:34:13.594Z,14.10
2023-04-27T13:36:42.302Z,14.10
2023-04-27T13:39:10.824Z,13.90
2023-04-27T13:41:39.350Z,13.80
2023-04-27T13:44:09.252Z,14.00
2023-04-27T13:46:38.063Z,14.30
2023-04-27T13:49:06.631Z,14.20
2023-04-27T13:51:36.003Z,14.30
2023-04-27T13:54:04.740Z,14.10
2023-04-27T13:56:33.459Z,13.80
2023-04-27T13:59:02.214Z,13.80
2023-04-27T14:01:33.372Z,13.80
2023-04-27T14:04:02.322Z,13.90
2023-04-27T14:06:32.007Z,14.00
2023-04-27T14:09:00.512Z,14.20
2023-04-27T14:11:29.062Z,14.20
2023-04-27T14:13:58.127Z,14.40
2023-04-27T14:16:26.836Z,14.90
2023-04-27T14:18:57.032Z,15.30
2023-04-27T14:21:26.560Z,15.20
2023-04-27T14:23:55.231Z,15.10
2023-04-27T14:26:23.715Z,15.10
2023-04-27T14:28:52.210Z,14.80
2023-04-27T14:31:20.769Z,14.60
2023-04-27T14:33:49.236Z,14.50
2023-04-27T14:36:19.363Z,14.50
2023-04-27T14:38:47.892Z,14.50
2023-04-27T14:41:16.549Z,14.60
2023-04-27T14:43:47.114Z,14.70
2023-04-27T14:46:21.011Z,14.70
2023-04-27T14:48:51.489Z,14.80
2023-04-27T14:51:21.871Z,14.80
2023-04-27T14:53:50.413Z,14.90
2023-04-27T14:56:18.920Z,15.10
2023-04-27T14:58:47.403Z,15.30
2023-04-27T15:01:16.387Z,15.30
2023-04-27T15:03:45.116Z,15.30
2023-04-27T15:06:13.939Z,15.50
2023-04-27T15:08:43.753Z,15.60
2023-04-27T15:11:12.232Z,15.50
2023-04-27T15:13:41.674Z,15.50
2023-04-27T15:16:10.228Z,15.70
2023-04-27T15:18:38.754Z,15.50
2023-04-27T15:21:08.004Z,15.30
2023-04-27T15:23:37.410Z,15.10
2023-04-27T15:26:07.359Z,15.00
2023-04-27T15:28:36.414Z,14.90
2023-04-27T15:31:05.209Z,14.90
2023-04-27T15:33:33.752Z,15.00
2023-04-27T15:36:02.263Z,15.20
2023-04-27T15:38:30.812Z,15.20
2023-04-27T15:40:59.797Z,15.00
2023-04-27T15:43:29.711Z,14.80
2023-04-27T15:45:58.174Z,14.70
2023-04-27T15:48:26.828Z,14.60
2023-04-27T15:50:55.298Z,14.50
2023-04-27T15:53:24.064Z,14.50
2023-04-27T15:55:52.932Z,14.60
2023-04-27T15:58:21.545Z,14.80
2023-04-27T16:00:51.628Z,14.90
2023-04-27T16:03:20.478Z,14.90
2023-04-27T16:05:52.518Z,15.00
2023-04-27T16:08:21.086Z,15.10
2023-04-27T16:10:50.849Z,15.10
2023-04-27T16:13:19.330Z,15.00
2023-04-27T16:15:47.793Z,15.00
2023-04-27T16:18:17.659Z,15.10
2023-04-27T16:20:46.168Z,15.10
2023-04-27T16:23:14.701Z,15.10
2023-04-27T16:25:43.178Z,15.10
2023-04-27T16:28:11.907Z,15.00
2023-04-27T16:30:40.451Z,15.00
2023-04-27T16:33:09.000Z,15.00
2023-04-27T16:35:38.978Z,15.00
2023-04-27T16:38:07.546Z,15.00
2023-04-27T16:40:36.062Z,15.00
2023-04-27T16:43:04.566Z,15.00
2023-04-27T16:45:34.483Z,14.90
2023-04-27T16:48:03.462Z,14.90
2023-04-27T16:50:33.475Z,15.00
2023-04-27T16:53:13.695Z,14.90
2023-04-27T16:55:42.336Z,14.90
2023-04-27T16:58:11.100Z,14.90
2023-04-27T17:00:40.222Z,14.80
2023-04-27T17:03:09.782Z,14.70
2023-04-27T17:05:38.619Z,14.70
2023-04-27T17:08:08.554Z,14.60
2023-04-27T17:10:37.741Z,14.60
2023-04-27T17:13:07.790Z,14.60
2023-04-27T17:15:36.980Z,14.60
2023-04-27T17:18:05.891Z,14.40
2023-04-27T17:20:34.526Z,14.30
2023-04-27T17:23:03.157Z,14.10
2023-04-27T17:25:33.108Z,14.10
2023-04-27T17:28:01.908Z,14.10
2023-04-27T17:30:30.428Z,14.00
2023-04-27T17:32:59.022Z,14.00
2023-04-27T17:35:27.749Z,13.80
2023-04-27T17:37:56.456Z,13.60
2023-04-27T17:40:24.980Z,13.30
2023-04-27T17:42:56.628Z,12.90
2023-04-27T17:45:26.786Z,12.70
2023-04-27T17:47:55.351Z,12.50
2023-04-27T17:50:25.129Z,12.50
2023-04-27T17:55:23.520Z,12.20
2023-04-27T17:57:52.128Z,12.00
2023-04-27T18:00:23.303Z,11.90
2023-04-27T18:02:52.176Z,11.90
2023-04-27T18:05:20.864Z,11.80
2023-04-27T18:07:50.202Z,11.60
2023-04-27T18:10:18.806Z,11.30
2023-04-27T18:12:47.363Z,11.10
2023-04-27T18:15:15.900Z,11.10
2023-04-27T18:17:45.937Z,11.00
2023-04-27T18:20:15.872Z,10.90
2023-04-27T18:22:44.512Z,10.80
2023-04-27T18:25:13.370Z,10.70
2023-04-27T18:27:43.951Z,10.50
2023-04-27T18:30:13.077Z,10.40
2023-04-27T18:32:41.621Z,10.20
2023-04-27T18:35:11.820Z,10.20
2023-04-27T18:37:40.508Z,10.10
2023-04-27T18:40:10.934Z,10.00
2023-04-27T18:42:39.409Z,10.00
2023-04-27T18:45:09.841Z,10.00
2023-04-27T18:47:38.504Z,10.00
2023-04-27T18:50:09.021Z,9.90
2023-04-27T18:52:38.976Z,10.00
2023-04-27T18:55:10.175Z,10.00
2023-04-27T18:57:38.754Z,9.90
2023-04-27T19:00:10.678Z,9.80
2023-04-27T19:02:39.803Z,9.70
2023-04-27T19:05:13.410Z,9.60
2023-04-27T19:07:43.493Z,9.50
2023-04-27T19:10:13.880Z,9.50
2023-04-27T19:12:42.419Z,9.60
2023-04-27T19:15:12.395Z,9.60
2023-04-27T19:17:41.468Z,9.50
2023-04-27T19:20:11.343Z,9.60
2023-04-27T19:22:39.813Z,9.60
2023-04-27T19:25:10.931Z,9.40
2023-04-27T19:27:39.783Z,9.20
2023-04-27T19:30:10.289Z,9.10
2023-04-27T19:32:38.842Z,8.90
2023-04-27T19:35:11.772Z,8.80
2023-04-27T19:37:40.345Z,8.70
2023-04-27T19:40:12.366Z,8.60
2023-04-27T19:42:40.949Z,8.50
2023-04-27T19:45:10.810Z,8.60
2023-04-27T19:47:39.364Z,8.60
2023-04-27T19:50:08.925Z,8.50
2023-04-27T19:52:37.830Z,8.60
2023-04-27T19:55:07.207Z,8.60
2023-04-27T19:57:37.795Z,8.80
2023-04-27T20:00:11.654Z,8.80
2023-04-27T20:02:40.675Z,8.80
2023-04-27T20:05:09.820Z,8.70
2023-04-27T20:07:38.982Z,8.70
2023-04-27T20:10:08.729Z,8.60
2023-04-27T20:12:52.019Z,8.60
2023-04-27T20:15:25.396Z,8.60
2023-04-27T20:17:53.982Z,8.50
2023-04-27T20:20:22.767Z,8.40
2023-04-27T20:22:51.442Z,8.40
2023-04-27T20:25:20.473Z,8.40
2023-04-27T20:27:50.373Z,8.50
2023-04-27T20:30:18.965Z,8.40
2023-04-27T20:32:47.506Z,8.30
2023-04-27T20:35:16.102Z,8.40
2023-04-27T20:37:44.882Z,8.50
2023-04-27T20:40:17.653Z,8.50
2023-04-27T20:42:46.921Z,8.50
2023-04-27T20:45:17.574Z,8.60
2023-04-27T20:47:46.371Z,8.60
2023-04-27T20:50:15.112Z,8.50
2023-04-27T20:52:43.591Z,8.50
2023-04-27T20:55:12.490Z,8.50
2023-04-27T20:57:40.961Z,8.50
2023-04-27T21:00:10.833Z,8.40
2023-04-27T21:02:41.084Z,8.40
2023-04-27T21:05:10.259Z,8.40
2023-04-27T21:07:38.941Z,8.40
2023-04-27T21:10:08.873Z,8.20
2023-04-27T21:12:37.347Z,8.10
2023-04-27T21:15:06.938Z,8.00
2023-04-27T21:17:35.827Z,8.00
2023-04-27T21:20:06.622Z,7.90
2023-04-27T21:22:35.152Z,7.90
2023-04-27T21:25:04.969Z,7.90
2023-04-27T21:27:33.496Z,7.90
2023-04-27T21:30:01.987Z,7.90
2023-04-27T21:32:30.645Z,7.90
2023-04-27T21:34:59.196Z,8.00
2023-04-27T21:37:29.306Z,8.10
2023-04-27T21:39:57.777Z,8.20
2023-04-27T21:42:26.621Z,8.20
2023-04-27T21:44:56.175Z,8.30
2023-04-27T21:47:24.777Z,8.30
2023-04-27T21:49:53.316Z,8.40
2023-04-27T21:52:22.564Z,8.40
2023-04-27T21:54:52.640Z,8.30
2023-04-27T21:57:21.108Z,7.90
2023-04-27T21:59:49.789Z,8.30
2023-04-27T22:02:18.392Z,8.30
2023-04-27T22:04:49.451Z,8.20
2023-04-27T22:07:18.688Z,8.20
2023-04-27T22:09:47.203Z,8.20
2023-04-27T22:12:17.021Z,8.10
2023-04-27T22:14:46.984Z,8.00
2023-04-27T22:17:15.437Z,8.00
2023-04-27T22:19:43.914Z,7.90
2023-04-27T22:22:12.744Z,7.90
2023-04-27T22:24:41.355Z,7.80
2023-04-27T22:27:10.039Z,7.80
2023-04-27T22:29:39.890Z,7.80
2023-04-27T22:32:08.657Z,7.80
2023-04-27T22:34:37.521Z,7.80
2023-04-27T22:37:06.090Z,7.80
2023-04-27T22:39:34.596Z,7.80
2023-04-27T22:42:03.042Z,7.50
2023-04-27T22:44:32.044Z,7.50
2023-04-27T22:47:02.535Z,7.50
2023-04-27T22:49:32.135Z,7.60
2023-04-27T22:52:00.618Z,7.60
2023-04-27T22:54:29.771Z,7.60
2023-04-27T22:56:58.688Z,7.60
2023-04-27T22:59:27.214Z,7.70
2023-04-27T23:01:55.880Z,7.80
2023-04-27T23:04:26.582Z,7.80
2023-04-27T23:06:55.445Z,7.80
2023-04-27T23:09:23.924Z,7.90
2023-04-27T23:11:52.417Z,7.90
2023-04-27T23:14:21.303Z,7.90
2023-04-27T23:16:49.849Z,7.80
2023-04-27T23:19:18.393Z,7.80
2023-04-27T23:21:48.185Z,7.90
2023-04-27T23:24:16.785Z,7.90
2023-04-27T23:26:45.353Z,8.00
2023-04-27T23:29:13.797Z,7.90
2023-04-27T23:31:42.387Z,7.80
2023-04-27T23:34:10.821Z,7.70
2023-04-27T23:36:39.572Z,7.60
2023-04-27T23:39:09.438Z,7.50
2023-04-27T23:41:38.622Z,7.40
2023-04-27T23:44:07.140Z,7.40
2023-04-27T23:46:36.193Z,7.30
2023-04-27T23:49:04.700Z,7.40
2023-04-27T23:51:33.335Z,7.30
2023-04-27T23:54:02.502Z,7.40
2023-04-27T23:56:32.309Z,7.50
2023-04-27T23:59:01.024Z,7.40
